createdAt,value
2023-05-08T00:04:47.960Z,95915.00
2023-05-08T00:10:16.108Z,95922.00
2023-05-08T00:15:44.373Z,95925.00
2023-05-08T00:21:12.495Z,95931.00
2023-05-08T00:26:42.076Z,95937.00
2023-05-08T00:32:10.675Z,95941.00
2023-05-08T00:37:40.845Z,95943.00
2023-05-08T00:43:08.655Z,95937.00
2023-05-08T00:48:37.326Z,95930.00
2023-05-08T00:54:06.279Z,95927.00
2023-05-08T00:59:36.740Z,95930.00
2023-05-08T01:05:05.229Z,95931.00
2023-05-08T01:10:51.641Z,95926.00
2023-05-08T01:16:41.746Z,95928.00
2023-05-08T01:22:33.639Z,95935.00
2023-05-08T01:29:03.101Z,95937.00
2023-05-08T01:34:40.114Z,95935.00
2023-05-08T01:40:32.163Z,95946.00
2023-05-08T01:46:06.564Z,95957.00
2023-05-08T01:51:44.503Z,95962.00
2023-05-08T01:57:14.258Z,95966.00
2023-05-08T02:02:43.425Z,95967.00
2023-05-08T02:08:14.288Z,95965.00
2023-05-08T02:13:44.913Z,95972.00
2023-05-08T02:19:15.162Z,95972.00
2023-05-08T02:24:45.506Z,95972.00
2023-05-08T02:30:16.093Z,95977.00
2023-05-08T02:35:46.971Z,95976.00
2023-05-08T02:41:18.745Z,95974.00
2023-05-08T02:46:59.338Z,95983.00
2023-05-08T02:52:49.145Z,95978.00
2023-05-08T02:58:34.279Z,95985.00
2023-05-08T03:04:09.064Z,95983.00
2023-05-08T03:09:48.083Z,95985.00
2023-05-08T03:15:26.186Z,95989.00
2023-05-08T03:20:58.423Z,95978.00
2023-05-08T03:26:26.900Z,95984.00
2023-05-08T03:31:57.430Z,95986.00
2023-05-08T03:37:28.763Z,95994.00
2023-05-08T03:42:57.234Z,95993.00
2023-05-08T03:48:27.695Z,95990.00
2023-05-08T03:53:56.348Z,95993.00
2023-05-08T04:00:00.136Z,95997.00
2023-05-08T04:06:01.517Z,96006.00
2023-05-08T04:11:42.735Z,96009.00
2023-05-08T04:17:14.812Z,96015.00
2023-05-08T04:22:45.630Z,96011.00
2023-05-08T04:28:14.626Z,96013.00
2023-05-08T04:33:47.099Z,96021.00
2023-05-08T04:39:15.811Z,96034.00
2023-05-08T04:44:44.104Z,96027.00
2023-05-08T04:50:12.439Z,96030.00
2023-05-08T04:55:41.002Z,96035.00
2023-05-08T05:01:09.782Z,96044.00
2023-05-08T05:06:39.218Z,96045.00
2023-05-08T05:12:08.630Z,96053.00
2023-05-08T05:17:37.284Z,96057.00
2023-05-08T05:23:06.199Z,96064.00
2023-05-08T05:28:34.703Z,96064.00
2023-05-08T05:34:03.188Z,96067.00
2023-05-08T05:39:31.518Z,96068.00
2023-05-08T05:45:01.968Z,96071.00
2023-05-08T05:50:32.239Z,96078.00
2023-05-08T05:56:01.036Z,96075.00
2023-05-08T06:01:29.968Z,96087.00
2023-05-08T06:06:58.534Z,96084.00
2023-05-08T06:12:28.397Z,96089.00
2023-05-08T06:17:57.110Z,96091.00
2023-05-08T06:23:25.891Z,96086.00
2023-05-08T06:28:54.045Z,96092.00
2023-05-08T06:34:22.073Z,96093.00
2023-05-08T06:39:54.705Z,96096.00
2023-05-08T06:45:32.308Z,96104.00
2023-05-08T06:51:03.640Z,96108.00
2023-05-08T06:56:31.821Z,96103.00
2023-05-08T07:02:00.105Z,96111.00
2023-05-08T07:07:28.683Z,96111.00
2023-05-08T07:12:56.923Z,96119.00
2023-05-08T07:18:25.832Z,96114.00
2023-05-08T07:23:54.741Z,96122.00
2023-05-08T07:29:22.959Z,96118.00
2023-05-08T07:34:51.067Z,96117.00
2023-05-08T07:40:20.235Z,96129.00
2023-05-08T07:45:48.835Z,96126.00
2023-05-08T07:51:18.193Z,96126.00
2023-05-08T07:56:46.436Z,96133.00
2023-05-08T08:02:14.926Z,96125.00
2023-05-08T08:07:43.757Z,96124.00
2023-05-08T08:13:12.092Z,96127.00
2023-05-08T08:18:39.928Z,96125.00
2023-05-08T08:24:08.425Z,96131.00
2023-05-08T08:29:36.693Z,96131.00
2023-05-08T08:35:05.671Z,96131.00
2023-05-08T08:40:33.850Z,96132.00
2023-05-08T08:46:14.756Z,96134.00
2023-05-08T08:51:58.632Z,96139.00
2023-05-08T08:57:29.029Z,96136.00
2023-05-08T09:02:57.414Z,96137.00
2023-05-08T09:08:26.028Z,96128.00
2023-05-08T09:13:55.736Z,96130.00
2023-05-08T09:19:26.333Z,96129.00
2023-05-08T09:24:57.607Z,96131.00
2023-05-08T09:30:25.472Z,96133.00
2023-05-08T09:35:54.455Z,96143.00
2023-05-08T09:41:24.138Z,96128.00
2023-05-08T09:46:52.330Z,96132.00
2023-05-08T09:52:21.916Z,96137.00
2023-05-08T09:58:00.373Z,96142.00
2023-05-08T10:03:50.052Z,96140.00
2023-05-08T10:09:18.253Z,96148.00
2023-05-08T10:14:46.913Z,96137.00
2023-05-08T10:20:15.905Z,96133.00
2023-05-08T10:25:48.827Z,96138.00
2023-05-08T10:31:20.585Z,96134.00
2023-05-08T10:36:48.947Z,96127.00
2023-05-08T10:42:17.468Z,96133.00
2023-05-08T10:48:11.871Z,96128.00
2023-05-08T10:53:52.824Z,96121.00
2023-05-08T10:59:21.204Z,96115.00
2023-05-08T11:04:49.402Z,96111.00
2023-05-08T11:10:17.523Z,96117.00
2023-05-08T11:15:51.177Z,96116.00
2023-05-08T11:21:22.484Z,96116.00
2023-05-08T11:26:50.754Z,96114.00
2023-05-08T11:32:18.967Z,96115.00
2023-05-08T11:38:17.361Z,96109.00
2023-05-08T11:44:22.072Z,96104.00
2023-05-08T11:49:50.473Z,96108.00
2023-05-08T11:55:20.129Z,96109.00
2023-05-08T12:00:49.227Z,96111.00
2023-05-08T12:06:19.377Z,96114.00
2023-05-08T12:11:47.564Z,96112.00
2023-05-08T12:17:19.102Z,96110.00
2023-05-08T12:22:54.179Z,96116.00
2023-05-08T12:28:23.102Z,96120.00
2023-05-08T12:33:51.187Z,96117.00
2023-05-08T12:39:20.004Z,96117.00
2023-05-08T12:44:52.277Z,96113.00
2023-05-08T12:50:21.893Z,96115.00
2023-05-08T12:55:54.810Z,96120.00
2023-05-08T13:01:23.043Z,96110.00
2023-05-08T13:07:00.057Z,96108.00
2023-05-08T13:12:28.284Z,96104.00
2023-05-08T13:17:56.919Z,96108.00
2023-05-08T13:23:25.505Z,96103.00
2023-05-08T13:28:56.221Z,96105.00
2023-05-08T13:34:25.644Z,96099.00
2023-05-08T13:39:53.808Z,96101.00
2023-05-08T13:45:22.398Z,96092.00
2023-05-08T13:50:50.537Z,96086.00
2023-05-08T13:56:18.415Z,96096.00
2023-05-08T14:01:46.677Z,96089.00
2023-05-08T14:07:14.729Z,96092.00
2023-05-08T14:12:43.059Z,96102.00
2023-05-08T14:18:11.300Z,96102.00
2023-05-08T14:23:39.390Z,96085.00
2023-05-08T14:29:07.474Z,96096.00
2023-05-08T14:34:35.812Z,96096.00
2023-05-08T14:40:04.306Z,96090.00
2023-05-08T14:45:32.712Z,96085.00
2023-05-08T14:51:01.037Z,96089.00
2023-05-08T14:56:34.575Z,96083.00
2023-05-08T15:02:08.993Z,96087.00
2023-05-08T15:07:38.569Z,96094.00
2023-05-08T15:13:07.652Z,96088.00
2023-05-08T15:18:35.902Z,96098.00
2023-05-08T15:24:04.064Z,96089.00
2023-05-08T15:29:32.609Z,96093.00
2023-05-08T15:35:00.810Z,96098.00
2023-05-08T15:40:28.847Z,96099.00
2023-05-08T15:45:56.928Z,96096.00
2023-05-08T15:51:25.162Z,96092.00
2023-05-08T15:56:53.472Z,96091.00
2023-05-08T16:02:21.683Z,96085.00
2023-05-08T16:07:51.767Z,96081.00
2023-05-08T16:13:20.146Z,96082.00
2023-05-08T16:18:48.497Z,96086.00
2023-05-08T16:24:16.735Z,96081.00
2023-05-08T16:29:44.980Z,96076.00
2023-05-08T16:35:13.791Z,96080.00
2023-05-08T16:40:42.305Z,96081.00
2023-05-08T16:46:10.520Z,96077.00
2023-05-08T16:51:38.490Z,96074.00
2023-05-08T16:57:06.947Z,96076.00
2023-05-08T17:02:35.260Z,96082.00
2023-05-08T17:08:03.488Z,96090.00
2023-05-08T17:13:31.719Z,96097.00
2023-05-08T17:19:00.614Z,96100.00
2023-05-08T17:24:30.765Z,96110.00
2023-05-08T17:29:59.040Z,96116.00
2023-05-08T17:35:27.378Z,96116.00
2023-05-08T17:40:56.687Z,96116.00
2023-05-08T17:46:24.837Z,96116.00
2023-05-08T17:51:53.197Z,96124.00
2023-05-08T17:57:23.509Z,96129.00
2023-05-08T18:02:51.777Z,96138.00
2023-05-08T18:08:20.234Z,96142.00
2023-05-08T18:13:49.219Z,96145.00
2023-05-08T18:19:17.857Z,96141.00
2023-05-08T18:24:46.120Z,96138.00
2023-05-08T18:30:14.461Z,96140.00
2023-05-08T18:35:42.590Z,96140.00
2023-05-08T18:41:10.793Z,96138.00
2023-05-08T18:46:39.039Z,96143.00
2023-05-08T18:52:07.184Z,96148.00
2023-05-08T18:57:35.362Z,96150.00
2023-05-08T19:03:04.633Z,96154.00
2023-05-08T19:08:32.846Z,96158.00
2023-05-08T19:14:01.069Z,96157.00
2023-05-08T19:19:30.926Z,96154.00
2023-05-08T19:24:59.324Z,96158.00
2023-05-08T19:30:27.487Z,96159.00
2023-05-08T19:35:55.779Z,96166.00
2023-05-08T19:41:24.360Z,96166.00
2023-05-08T19:46:52.478Z,96159.00
2023-05-08T19:52:20.781Z,96157.00
2023-05-08T19:57:49.139Z,96157.00
2023-05-08T20:03:17.693Z,96147.00
2023-05-08T20:08:46.203Z,96157.00
2023-05-08T20:14:14.634Z,96163.00
2023-05-08T20:19:43.003Z,96156.00
2023-05-08T20:25:11.409Z,96164.00
2023-05-08T20:30:39.758Z,96158.00
2023-05-08T20:36:08.210Z,96158.00
2023-05-08T20:41:36.497Z,96149.00
2023-05-08T20:47:04.756Z,96149.00
2023-05-08T20:52:33.740Z,96140.00
2023-05-08T20:58:04.328Z,96141.00
2023-05-08T21:03:32.741Z,96134.00
2023-05-08T21:09:01.006Z,96132.00
2023-05-08T21:14:29.328Z,96134.00
2023-05-08T21:19:57.524Z,96125.00
2023-05-08T21:25:25.953Z,96123.00
2023-05-08T21:30:54.190Z,96121.00
2023-05-08T21:36:22.482Z,96123.00
2023-05-08T21:41:50.827Z,96120.00
2023-05-08T21:47:19.557Z,96110.00
2023-05-08T21:52:47.747Z,96109.00
2023-05-08T21:58:16.128Z,96098.00
2023-05-08T22:03:44.442Z,96100.00
2023-05-08T22:09:12.612Z,96102.00
2023-05-08T22:14:40.873Z,96095.00
2023-05-08T22:20:14.501Z,96093.00
2023-05-08T22:25:43.078Z,96090.00
2023-05-08T22:31:12.512Z,96079.00
2023-05-08T22:36:40.647Z,96075.00
2023-05-08T22:42:08.937Z,96086.00
2023-05-08T22:47:38.656Z,96072.00
2023-05-08T22:53:08.229Z,96083.00
2023-05-08T22:58:36.464Z,96084.00
2023-05-08T23:04:04.611Z,96079.00
2023-05-08T23:09:34.442Z,96072.00
2023-05-08T23:15:02.977Z,96063.00
2023-05-08T23:20:31.294Z,96074.00
2023-05-08T23:26:04.988Z,96075.00
2023-05-08T23:31:33.165Z,96065.00
2023-05-08T23:37:02.763Z,96063.00
2023-05-08T23:42:31.653Z,96054.00
2023-05-08T23:48:00.270Z,96044.00
2023-05-08T23:53:28.661Z,96040.00
2023-05-08T23:58:56.915Z,96033.00
